createdAt,value
2019-01-21T00:02:24.654Z,-2.28
2019-01-21T00:04:51.604Z,-2.28
2019-01-21T00:07:18.389Z,-2.18
2019-01-21T00:09:45.324Z,-2.18
2019-01-21T00:12:12.204Z,-2.16
2019-01-21T00:14:38.978Z,-2.35
2019-01-21T00:17:07.669Z,-2.75
2019-01-21T00:19:34.616Z,-2.97
2019-01-21T00:22:03.014Z,-3.15
2019-01-21T00:24:29.814Z,-3.04
2019-01-21T00:26:56.703Z,-2.94
2019-01-21T00:29:23.449Z,-2.91
2019-01-21T00:31:50.137Z,-2.86
2019-01-21T00:34:17.147Z,-2.81
2019-01-21T00:36:44.008Z,-2.79
2019-01-21T00:39:10.785Z,-2.63
2019-01-21T00:41:37.549Z,-2.66
2019-01-21T00:44:04.629Z,-2.68
2019-01-21T00:46:31.382Z,-2.72
2019-01-21T00:48:58.161Z,-2.83
2019-01-21T00:51:25.012Z,-2.72
2019-01-21T00:53:51.859Z,-2.62
2019-01-21T00:56:18.624Z,-2.54
2019-01-21T00:58:46.816Z,-2.55
2019-01-21T01:01:13.635Z,-2.68
2019-01-21T01:03:40.377Z,-2.74
2019-01-21T01:06:07.166Z,-3.05
2019-01-21T01:08:34.006Z,-3.27
2019-01-21T01:11:00.962Z,-3.12
2019-01-21T01:13:27.797Z,-2.98
2019-01-21T01:15:54.563Z,-2.89
2019-01-21T01:18:21.279Z,-2.91
2019-01-21T01:20:48.160Z,-2.88
2019-01-21T01:23:14.925Z,-2.88
2019-01-21T01:25:41.689Z,-2.81
2019-01-21T01:28:08.526Z,-2.81
2019-01-21T01:30:35.283Z,-2.90
2019-01-21T01:33:02.119Z,-3.11
2019-01-21T01:35:29.226Z,-3.05
2019-01-21T01:37:55.989Z,-3.02
2019-01-21T01:40:23.200Z,-3.20
2019-01-21T01:42:50.183Z,-3.44
2019-01-21T01:45:22.164Z,-3.33
2019-01-21T01:47:53.184Z,-3.25
2019-01-21T01:50:19.966Z,-3.27
2019-01-21T01:52:46.909Z,-3.25
2019-01-21T01:55:13.653Z,-3.39
2019-01-21T01:57:41.746Z,-3.45
2019-01-21T02:00:11.527Z,-3.42
2019-01-21T02:02:38.281Z,-3.30
2019-01-21T02:05:05.749Z,-3.41
2019-01-21T02:07:32.507Z,-3.41
2019-01-21T02:09:59.261Z,-3.60
2019-01-21T02:12:25.980Z,-3.64
2019-01-21T02:14:52.854Z,-3.48
2019-01-21T02:17:19.938Z,-3.43
2019-01-21T02:19:46.718Z,-3.33
2019-01-21T02:22:13.817Z,-3.45
2019-01-21T02:24:40.585Z,-3.41
2019-01-21T02:27:53.288Z,-3.41
2019-01-21T02:30:41.384Z,-3.45
2019-01-21T02:33:38.270Z,-3.58
2019-01-21T02:36:42.595Z,-3.82
2019-01-21T02:39:46.988Z,-3.69
2019-01-21T02:42:28.202Z,-3.65
2019-01-21T02:45:43.022Z,-3.74
2019-01-21T02:48:25.779Z,-3.62
2019-01-21T02:51:21.658Z,-3.70
2019-01-21T02:54:33.579Z,-3.68
2019-01-21T02:57:43.438Z,-3.48
2019-01-21T03:00:39.366Z,-3.32
2019-01-21T03:03:20.041Z,-3.48
2019-01-21T03:06:07.688Z,-3.68
2019-01-21T03:09:10.300Z,-3.74
2019-01-21T03:12:27.641Z,-3.79
2019-01-21T03:15:30.296Z,-3.78
2019-01-21T03:18:17.414Z,-3.85
2019-01-21T03:21:29.783Z,-3.74
2019-01-21T03:24:14.880Z,-3.67
2019-01-21T03:26:54.584Z,-3.68
2019-01-21T03:30:18.377Z,-3.80
2019-01-21T03:33:16.755Z,-3.89
2019-01-21T03:35:58.638Z,-3.70
2019-01-21T03:39:03.802Z,-3.56
2019-01-21T03:42:14.149Z,-3.65
2019-01-21T03:45:23.485Z,-3.70
2019-01-21T03:48:06.845Z,-3.64
2019-01-21T03:50:57.812Z,-3.62
2019-01-21T03:54:02.728Z,-4.02
2019-01-21T03:56:34.605Z,-4.23
2019-01-21T03:59:23.917Z,-4.32
2019-01-21T04:02:54.118Z,-4.13
2019-01-21T04:05:38.486Z,-3.99
2019-01-21T04:08:49.524Z,-3.96
2019-01-21T04:11:25.230Z,-3.85
2019-01-21T04:14:49.095Z,-3.78
2019-01-21T04:17:52.287Z,-3.68
2019-01-21T04:21:13.145Z,-3.65
2019-01-21T04:24:24.246Z,-3.55
2019-01-21T04:27:32.375Z,-3.55
2019-01-21T04:30:47.053Z,-3.64
2019-01-21T04:33:50.607Z,-3.45
2019-01-21T04:37:00.633Z,-3.24
2019-01-21T04:39:53.245Z,-3.22
2019-01-21T04:42:54.158Z,-3.15
2019-01-21T04:45:27.795Z,-3.14
2019-01-21T04:48:40.171Z,-3.18
2019-01-21T04:51:40.999Z,-3.22
2019-01-21T04:55:04.284Z,-3.13
2019-01-21T04:58:05.550Z,-2.95
2019-01-21T05:01:16.976Z,-3.14
2019-01-21T05:04:12.159Z,-3.29
2019-01-21T05:07:05.056Z,-3.43
2019-01-21T05:10:26.280Z,-3.28
2019-01-21T05:13:22.463Z,-3.13
2019-01-21T05:16:30.089Z,-2.99
2019-01-21T05:19:44.033Z,-2.90
2019-01-21T05:22:57.947Z,-2.74
2019-01-21T05:25:44.231Z,-2.72
2019-01-21T05:28:56.010Z,-2.62
2019-01-21T05:32:05.593Z,-3.08
2019-01-21T05:34:53.976Z,-3.16
2019-01-21T05:38:08.752Z,-2.86
2019-01-21T05:40:55.944Z,-2.76
2019-01-21T05:44:06.719Z,-2.58
2019-01-21T05:47:09.808Z,-2.43
2019-01-21T05:50:26.705Z,-2.43
2019-01-21T05:53:34.386Z,-2.45
2019-01-21T05:56:16.312Z,-2.46
2019-01-21T05:59:10.348Z,-2.37
2019-01-21T06:02:14.956Z,-2.25
2019-01-21T06:05:09.670Z,-2.15
2019-01-21T06:08:27.465Z,-2.10
2019-01-21T06:11:13.314Z,-2.08
2019-01-21T06:14:12.421Z,-2.06
2019-01-21T06:16:50.941Z,-2.04
2019-01-21T06:19:49.019Z,-2.10
2019-01-21T06:22:36.661Z,-2.05
2019-01-21T06:25:36.626Z,-1.98
2019-01-21T06:29:00.560Z,-1.93
2019-01-21T06:32:17.524Z,-2.02
2019-01-21T06:35:32.109Z,-1.84
2019-01-21T06:38:28.379Z,-1.83
2019-01-21T06:41:37.472Z,-1.73
2019-01-21T06:44:33.332Z,-1.83
2019-01-21T06:47:50.275Z,-1.81
2019-01-21T06:50:58.752Z,-1.76
2019-01-21T06:53:56.478Z,-1.79
2019-01-21T06:56:56.936Z,-1.80
2019-01-21T07:02:58.220Z,-1.66
2019-01-21T07:06:15.329Z,-1.63
2019-01-21T07:09:05.897Z,-1.59
2019-01-21T07:12:13.427Z,-1.53
2019-01-21T07:15:12.078Z,-1.60
2019-01-21T07:18:36.193Z,-1.64
2019-01-21T07:22:02.005Z,-1.66
2019-01-21T07:25:03.568Z,-1.72
2019-01-21T07:28:24.384Z,-1.74
2019-01-21T07:31:14.287Z,-1.67
2019-01-21T07:34:22.320Z,-1.60
2019-01-21T07:37:06.226Z,-1.72
2019-01-21T07:40:09.860Z,-1.81
2019-01-21T07:43:00.335Z,-1.92
2019-01-21T07:45:36.590Z,-1.87
2019-01-21T07:48:31.055Z,-1.85
2019-01-21T07:51:26.773Z,-1.95
2019-01-21T07:54:18.993Z,-2.01
2019-01-21T07:57:32.310Z,-1.88
2019-01-21T08:00:18.703Z,-1.88
2019-01-21T08:03:29.072Z,-1.88
2019-01-21T08:06:31.437Z,-1.74
2019-01-21T08:09:30.957Z,-1.71
2019-01-21T08:12:44.985Z,-1.82
2019-01-21T08:15:31.022Z,-1.78
2019-01-21T08:18:44.466Z,-1.82
2019-01-21T08:21:52.205Z,-1.79
2019-01-21T08:25:10.766Z,-1.71
2019-01-21T08:28:10.396Z,-1.75
2019-01-21T08:31:06.731Z,-1.82
2019-01-21T08:34:14.225Z,-1.65
2019-01-21T08:37:22.480Z,-1.65
2019-01-21T08:40:13.416Z,-1.63
2019-01-21T08:43:22.645Z,-1.63
2019-01-21T08:46:31.444Z,-1.70
2019-01-21T08:49:43.732Z,-1.70
2019-01-21T08:52:58.416Z,-1.67
2019-01-21T08:55:46.761Z,-1.57
2019-01-21T08:59:10.764Z,-1.52
2019-01-21T09:02:19.711Z,-1.47
2019-01-21T09:05:31.945Z,-1.43
2019-01-21T09:08:38.844Z,-1.72
2019-01-21T09:11:32.919Z,-1.11
2019-01-21T09:14:12.179Z,-1.23
2019-01-21T09:17:06.133Z,-1.34
2019-01-21T09:19:45.049Z,-1.31
2019-01-21T09:22:30.466Z,-1.29
2019-01-21T09:25:20.434Z,-1.20
2019-01-21T09:28:16.302Z,-1.13
2019-01-21T09:30:59.416Z,-0.91
2019-01-21T09:33:56.520Z,-0.57
2019-01-21T09:36:57.156Z,-0.48
2019-01-21T09:40:03.567Z,-0.38
2019-01-21T09:42:57.745Z,-0.42
2019-01-21T09:46:17.400Z,-0.27
2019-01-21T09:48:43.434Z,-0.49
2019-01-21T09:51:10.304Z,-0.38
2019-01-21T09:53:37.170Z,-0.28
2019-01-21T09:56:04.755Z,-0.06
2019-01-21T09:58:32.774Z,-0.09
2019-01-21T10:00:59.553Z,-0.04
2019-01-21T10:03:26.595Z,0.08
2019-01-21T10:05:55.275Z,0.11
2019-01-21T10:09:07.528Z,-0.09
2019-01-21T10:12:06.050Z,-0.16
2019-01-21T10:15:05.456Z,0.13
2019-01-21T10:18:20.111Z,0.10
2019-01-21T10:20:58.507Z,-0.01
2019-01-21T10:24:01.229Z,0.18
2019-01-21T10:27:12.426Z,0.23
2019-01-21T10:30:27.705Z,0.15
2019-01-21T10:33:40.286Z,0.16
2019-01-21T10:36:42.675Z,0.26
2019-01-21T10:39:58.840Z,0.32
2019-01-21T10:43:18.548Z,0.37
2019-01-21T10:46:16.785Z,0.56
2019-01-21T10:49:24.934Z,0.65
2019-01-21T10:52:24.358Z,1.00
2019-01-21T10:55:18.339Z,1.07
2019-01-21T10:57:51.099Z,1.07
2019-01-21T11:00:56.308Z,1.11
2019-01-21T11:03:40.655Z,1.07
2019-01-21T11:06:30.675Z,1.21
2019-01-21T11:09:47.923Z,1.31
2019-01-21T11:13:18.513Z,1.32
2019-01-21T11:15:59.554Z,1.34
2019-01-21T11:19:08.440Z,1.38
2019-01-21T11:21:44.443Z,1.49
2019-01-21T11:24:51.103Z,1.60
2019-01-21T11:27:56.113Z,1.70
2019-01-21T11:31:02.277Z,1.83
2019-01-21T11:34:04.791Z,1.81
2019-01-21T11:37:18.214Z,1.95
2019-01-21T11:40:25.574Z,1.93
2019-01-21T11:43:38.364Z,2.09
2019-01-21T11:46:40.532Z,2.01
2019-01-21T11:49:21.236Z,1.89
2019-01-21T11:52:19.558Z,2.06
2019-01-21T11:55:36.356Z,2.28
2019-01-21T11:58:52.958Z,2.28
2019-01-21T12:01:37.458Z,2.33
2019-01-21T12:04:42.213Z,2.41
2019-01-21T12:07:42.362Z,2.42
2019-01-21T12:10:45.729Z,2.70
2019-01-21T12:13:39.819Z,2.83
2019-01-21T12:16:43.460Z,2.83
2019-01-21T12:19:26.702Z,2.84
2019-01-21T12:22:37.683Z,2.65
2019-01-21T12:25:11.424Z,2.83
2019-01-21T12:28:14.928Z,2.79
2019-01-21T12:31:35.903Z,2.84
2019-01-21T12:34:47.203Z,2.96
2019-01-21T12:37:33.562Z,3.06
2019-01-21T12:40:38.930Z,3.15
2019-01-21T12:43:45.387Z,3.16
2019-01-21T12:46:32.416Z,3.30
2019-01-21T12:49:12.167Z,3.38
2019-01-21T12:52:11.542Z,2.74
2019-01-21T12:55:09.965Z,2.76
2019-01-21T12:58:26.751Z,2.62
2019-01-21T13:01:06.197Z,2.90
2019-01-21T13:03:54.789Z,3.08
2019-01-21T13:07:18.959Z,3.06
2019-01-21T13:10:12.396Z,3.02
2019-01-21T13:13:21.430Z,3.27
2019-01-21T13:16:14.076Z,3.56
2019-01-21T13:19:19.725Z,2.75
2019-01-21T13:22:37.261Z,2.61
2019-01-21T13:25:15.788Z,2.80
2019-01-21T13:27:59.958Z,2.81
2019-01-21T13:30:58.535Z,2.73
2019-01-21T13:34:21.428Z,2.92
2019-01-21T13:37:13.259Z,3.19
2019-01-21T13:40:21.032Z,3.73
2019-01-21T13:43:11.096Z,4.27
2019-01-21T13:46:32.268Z,4.63
2019-01-21T13:49:35.097Z,4.77
2019-01-21T13:52:42.071Z,4.64
2019-01-21T13:55:28.348Z,4.82
2019-01-21T13:58:25.502Z,4.23
2019-01-21T14:01:06.104Z,3.50
2019-01-21T14:04:14.935Z,3.39
2019-01-21T14:07:09.067Z,3.18
2019-01-21T14:10:21.193Z,3.53
2019-01-21T14:13:11.223Z,3.67
2019-01-21T14:16:01.638Z,3.73
2019-01-21T14:18:53.108Z,3.79
2019-01-21T14:21:35.925Z,3.72
2019-01-21T14:24:40.665Z,3.57
2019-01-21T14:27:57.608Z,3.52
2019-01-21T14:30:39.248Z,3.66
2019-01-21T14:33:38.892Z,3.14
2019-01-21T14:36:24.462Z,2.75
2019-01-21T14:39:45.431Z,2.60
2019-01-21T14:42:37.495Z,2.62
2019-01-21T14:45:43.237Z,2.59
2019-01-21T14:48:36.687Z,2.38
2019-01-21T14:51:42.362Z,2.34
2019-01-21T14:55:03.283Z,2.27
2019-01-21T14:58:33.383Z,2.25
2019-01-21T15:01:47.687Z,2.25
2019-01-21T15:04:52.324Z,2.42
2019-01-21T15:08:02.156Z,2.48
2019-01-21T15:11:02.596Z,2.33
2019-01-21T15:13:42.593Z,2.42
2019-01-21T15:17:04.119Z,2.48
2019-01-21T15:19:52.836Z,2.61
2019-01-21T15:22:39.985Z,2.73
2019-01-21T15:25:35.745Z,2.67
2019-01-21T15:28:29.100Z,2.81
2019-01-21T15:31:50.457Z,2.84
2019-01-21T15:35:07.594Z,2.86
2019-01-21T15:38:01.490Z,2.92
2019-01-21T15:41:24.015Z,2.97
2019-01-21T15:44:24.470Z,2.68
2019-01-21T15:47:30.453Z,2.28
2019-01-21T15:50:19.645Z,2.16
2019-01-21T15:52:57.644Z,2.33
2019-01-21T15:56:00.541Z,2.50
2019-01-21T15:59:18.529Z,2.45
2019-01-21T16:02:20.894Z,2.45
2019-01-21T16:05:37.516Z,2.19
2019-01-21T16:08:18.841Z,2.16
2019-01-21T16:11:09.979Z,2.05
2019-01-21T16:14:10.454Z,2.21
2019-01-21T16:17:28.583Z,2.10
2019-01-21T16:20:01.007Z,2.16
2019-01-21T16:23:12.451Z,1.99
2019-01-21T16:25:59.253Z,1.96
2019-01-21T16:29:06.422Z,2.03
2019-01-21T16:32:15.369Z,2.10
2019-01-21T16:35:18.109Z,2.12
2019-01-21T16:37:50.600Z,2.15
2019-01-21T16:40:38.914Z,2.08
2019-01-21T16:43:05.991Z,2.19
2019-01-21T16:45:34.524Z,2.29
2019-01-21T16:48:01.487Z,2.23
2019-01-21T16:50:31.205Z,2.23
2019-01-21T16:52:58.118Z,2.16
2019-01-21T16:55:24.920Z,2.10
2019-01-21T16:57:51.808Z,2.12
2019-01-21T17:00:18.550Z,2.13
2019-01-21T17:02:45.651Z,2.10
2019-01-21T17:05:12.540Z,2.01
2019-01-21T17:07:40.426Z,1.99
2019-01-21T17:10:08.350Z,2.04
2019-01-21T17:12:35.949Z,1.96
2019-01-21T17:15:05.637Z,1.87
2019-01-21T17:17:32.619Z,1.81
2019-01-21T17:20:00.872Z,1.75
2019-01-21T17:22:27.837Z,1.68
2019-01-21T17:24:55.108Z,1.60
2019-01-21T17:27:21.905Z,1.56
2019-01-21T17:29:49.796Z,1.63
2019-01-21T17:32:17.045Z,1.68
2019-01-21T17:34:44.113Z,1.50
2019-01-21T17:37:11.027Z,1.39
2019-01-21T17:39:38.322Z,1.25
2019-01-21T17:42:05.370Z,1.19
2019-01-21T17:44:32.479Z,1.25
2019-01-21T17:47:02.187Z,1.21
2019-01-21T17:49:29.300Z,1.20
2019-01-21T17:51:56.275Z,1.13
2019-01-21T17:54:23.318Z,1.06
2019-01-21T17:56:50.839Z,1.00
2019-01-21T17:59:17.610Z,0.86
2019-01-21T18:01:44.457Z,0.78
2019-01-21T18:04:11.367Z,0.71
2019-01-21T18:06:40.390Z,0.60
2019-01-21T18:09:08.784Z,0.42
2019-01-21T18:11:41.309Z,0.24
2019-01-21T18:14:04.726Z,0.22
2019-01-21T18:16:32.631Z,0.30
2019-01-21T18:18:59.669Z,0.47
2019-01-21T18:21:26.638Z,0.64
2019-01-21T18:23:53.579Z,0.60
2019-01-21T18:26:20.419Z,0.54
2019-01-21T18:28:47.179Z,0.38
2019-01-21T18:31:14.075Z,0.35
2019-01-21T18:33:40.870Z,0.30
2019-01-21T18:36:07.656Z,0.25
2019-01-21T18:38:34.837Z,0.30
2019-01-21T18:41:01.590Z,0.33
2019-01-21T18:43:28.359Z,0.38
2019-01-21T18:45:55.208Z,0.35
2019-01-21T18:48:22.129Z,0.31
2019-01-21T18:50:49.155Z,0.20
2019-01-21T18:53:16.077Z,0.08
2019-01-21T18:55:42.910Z,0.10
2019-01-21T18:58:09.923Z,-0.04
2019-01-21T19:00:40.924Z,-0.03
2019-01-21T19:03:08.352Z,-0.02
2019-01-21T19:05:35.498Z,-0.12
2019-01-21T19:08:05.487Z,-0.14
2019-01-21T19:10:32.271Z,-0.28
2019-01-21T19:12:59.309Z,-0.16
2019-01-21T19:15:30.827Z,-0.10
2019-01-21T19:17:58.598Z,-0.25
2019-01-21T19:20:25.767Z,-0.26
2019-01-21T19:22:52.879Z,-0.23
2019-01-21T19:25:19.624Z,-0.18
2019-01-21T19:27:46.372Z,-0.19
2019-01-21T19:30:15.841Z,-0.27
2019-01-21T19:32:42.810Z,-0.33
2019-01-21T19:35:11.451Z,-0.33
2019-01-21T19:37:38.624Z,-0.40
2019-01-21T19:40:09.525Z,-0.48
2019-01-21T19:42:37.277Z,-0.51
2019-01-21T19:45:05.120Z,-0.47
2019-01-21T19:47:32.051Z,-0.45
2019-01-21T19:49:59.107Z,-0.40
2019-01-21T19:52:26.015Z,-0.48
2019-01-21T19:54:53.570Z,-0.62
2019-01-21T19:57:20.893Z,-0.71
2019-01-21T19:59:47.749Z,-0.78
2019-01-21T20:02:14.677Z,-0.83
2019-01-21T20:04:41.601Z,-0.84
2019-01-21T20:07:08.451Z,-0.99
2019-01-21T20:09:35.690Z,-1.12
2019-01-21T20:12:02.662Z,-1.06
2019-01-21T20:14:29.717Z,-1.17
2019-01-21T20:16:58.919Z,-1.09
2019-01-21T20:19:25.926Z,-1.01
2019-01-21T20:21:53.382Z,-1.11
2019-01-21T20:24:20.318Z,-0.99
2019-01-21T20:26:47.363Z,-1.10
2019-01-21T20:29:14.461Z,-1.15
2019-01-21T20:31:41.559Z,-1.40
2019-01-21T20:34:08.432Z,-1.50
2019-01-21T20:36:35.449Z,-1.90
2019-01-21T20:39:02.326Z,-2.16
2019-01-21T20:41:29.264Z,-2.03
2019-01-21T20:43:56.197Z,-1.86
2019-01-21T20:46:23.166Z,-1.76
2019-01-21T20:48:49.959Z,-1.67
2019-01-21T20:51:17.025Z,-1.60
2019-01-21T20:53:44.183Z,-1.52
2019-01-21T20:56:11.213Z,-1.54
2019-01-21T20:58:41.241Z,-1.66
2019-01-21T21:01:08.098Z,-1.73
2019-01-21T21:03:34.897Z,-1.91
2019-01-21T21:06:01.808Z,-1.94
2019-01-21T21:08:28.627Z,-1.77
2019-01-21T21:10:55.547Z,-1.72
2019-01-21T21:13:22.535Z,-1.79
2019-01-21T21:15:49.362Z,-1.78
2019-01-21T21:18:16.334Z,-1.73
2019-01-21T21:20:43.255Z,-1.82
2019-01-21T21:23:10.224Z,-2.01
2019-01-21T21:25:37.616Z,-1.97
2019-01-21T21:28:07.461Z,-2.10
2019-01-21T21:30:34.427Z,-2.12
2019-01-21T21:33:01.404Z,-2.21
2019-01-21T21:35:28.358Z,-2.12
2019-01-21T21:37:55.427Z,-2.13
2019-01-21T21:40:22.355Z,-2.16
2019-01-21T21:42:49.350Z,-2.12
2019-01-21T21:45:17.112Z,-2.08
2019-01-21T21:47:44.097Z,-2.03
2019-01-21T21:50:22.456Z,-2.07
2019-01-21T21:52:49.470Z,-2.05
2019-01-21T21:55:16.431Z,-2.24
2019-01-21T21:57:43.351Z,-2.24
2019-01-21T22:00:19.845Z,-2.33
2019-01-21T22:02:46.880Z,-2.42
2019-01-21T22:05:13.753Z,-2.44
2019-01-21T22:07:40.550Z,-2.31
2019-01-21T22:10:11.218Z,-2.16
2019-01-21T22:12:38.260Z,-2.34
2019-01-21T22:15:10.687Z,-2.33
2019-01-21T22:17:38.083Z,-2.36
2019-01-21T22:20:07.893Z,-2.44
2019-01-21T22:22:35.225Z,-2.41
2019-01-21T22:25:02.348Z,-2.45
2019-01-21T22:27:29.850Z,-2.61
2019-01-21T22:29:57.907Z,-2.81
2019-01-21T22:32:25.005Z,-2.93
2019-01-21T22:34:51.992Z,-3.03
2019-01-21T22:37:18.765Z,-2.90
2019-01-21T22:39:46.130Z,-2.88
2019-01-21T22:42:16.335Z,-2.93
2019-01-21T22:44:43.569Z,-2.80
2019-01-21T22:47:12.169Z,-2.72
2019-01-21T22:49:41.271Z,-2.75
2019-01-21T22:52:08.256Z,-3.00
2019-01-21T22:54:35.638Z,-3.40
2019-01-21T22:57:04.686Z,-3.51
2019-01-21T22:59:31.471Z,-3.54
2019-01-21T23:01:59.054Z,-3.70
2019-01-21T23:04:26.150Z,-3.47
2019-01-21T23:06:53.483Z,-3.31
2019-01-21T23:09:20.543Z,-3.08
2019-01-21T23:11:47.312Z,-3.09
2019-01-21T23:14:14.182Z,-3.04
2019-01-21T23:16:40.957Z,-2.98
2019-01-21T23:19:07.939Z,-3.05
2019-01-21T23:21:34.717Z,-3.18
2019-01-21T23:24:01.603Z,-3.34
2019-01-21T23:26:28.645Z,-3.19
2019-01-21T23:28:55.438Z,-3.21
2019-01-21T23:31:22.274Z,-3.25
2019-01-21T23:33:49.003Z,-3.29
2019-01-21T23:36:15.918Z,-3.40
2019-01-21T23:38:43.110Z,-3.42
2019-01-21T23:41:09.889Z,-3.23
2019-01-21T23:43:36.674Z,-3.23
2019-01-21T23:46:03.430Z,-3.09
2019-01-21T23:48:30.297Z,-3.18
2019-01-21T23:50:57.019Z,-3.27
2019-01-21T23:53:23.838Z,-3.27
2019-01-21T23:55:50.659Z,-3.23
2019-01-21T23:58:17.732Z,-3.18
